<?xml version='1.0' encoding='UTF-8'?><gpx version="1.1" creator="JPX - https://github.com/jenetics/jpx" xmlns="http://www.topografix.com/GPX/1/1"><trk><trkseg><trkpt lat="37.76176290567592" lon="-25.349330142187032"><ele>533.0</ele><time>2026-04-30T16:13:52.999Z</time></trkpt><trkpt lat="37.761717601779274" lon="-25.34939703591811"><ele>533.0</ele><time>2026-04-30T16:14:02.999Z</time></trkpt><trkpt lat="37.76170499190525" lon="-25.349485123060667"><ele>533.0</ele><time>2026-04-30T16:14:09.999Z</time></trkpt><trkpt lat="37.7616819924841" lon="-25.349568263056423"><ele>533.0</ele><time>2026-04-30T16:14:15.999Z</time></trkpt><trkpt lat="37.76166123288935" lon="-25.3496463719224"><ele>533.0</ele><time>2026-04-30T16:14:22.999Z</time></trkpt><trkpt lat="37.761667839212414" lon="-25.349729155272733"><ele>533.0</ele><time>2026-04-30T16:14:29.999Z</time></trkpt><trkpt lat="37.7616506725517" lon="-25.34980816321539"><ele>533.0</ele><time>2026-04-30T16:14:36.999Z</time></trkpt><trkpt lat="37.76163846281021" lon="-25.3498973745758"><ele>533.4285714285714</ele><time>2026-04-30T16:14:43.999Z</time></trkpt><trkpt lat="37.76160256043225" lon="-25.349966349170373"><ele>533.8571428571428</ele><time>2026-04-30T16:14:49.999Z</time></trkpt><trkpt lat="37.761534593213085" lon="-25.34996028676277"><ele>534.2857142857142</ele><time>2026-04-30T16:14:56.999Z</time></trkpt><trkpt lat="37.761472626909466" lon="-25.34992211907875"><ele>534.7142857142857</ele><time>2026-04-30T16:15:04.999Z</time></trkpt><trkpt lat="37.761414276586706" lon="-25.34988830709219"><ele>535.1428571428571</ele><time>2026-04-30T16:15:10.999Z</time></trkpt><trkpt lat="37.761349153953304" lon="-25.349848694305827"><ele>535.5714285714286</ele><time>2026-04-30T16:15:16.999Z</time></trkpt><trkpt lat="37.76129068463108" lon="-25.34981014656762"><ele>536.0</ele><time>2026-04-30T16:15:22.999Z</time></trkpt><trkpt lat="37.76122330374734" lon="-25.349787126415887"><ele>536.0</ele><time>2026-04-30T16:15:29.999Z</time></trkpt><trkpt lat="37.76116438321468" lon="-25.34975093795001"><ele>536.0</ele><time>2026-04-30T16:15:40Z</time></trkpt><trkpt lat="37.76109639286824" lon="-25.34971937582636"><ele>536.0</ele><time>2026-04-30T16:15:57Z</time></trkpt><trkpt lat="37.76102809350679" lon="-25.349680540024035"><ele>536.0</ele><time>2026-04-30T16:16:05Z</time></trkpt><trkpt lat="37.76096873295686" lon="-25.34964517248578"><ele>536.0</ele><time>2026-04-30T16:16:12Z</time></trkpt><trkpt lat="37.760911508322295" lon="-25.3495982920867"><ele>536.0</ele><time>2026-04-30T16:16:18Z</time></trkpt><trkpt lat="37.76084402855073" lon="-25.34956854735029"><ele>536.0</ele><time>2026-04-30T16:16:25Z</time></trkpt><trkpt lat="37.760904010246996" lon="-25.34959355092624"><ele>530.0</ele><time>2026-04-30T16:16:44Z</time></trkpt><trkpt lat="37.76096804968643" lon="-25.34963229291054"><ele>530.0</ele><time>2026-04-30T16:16:50Z</time></trkpt><trkpt lat="37.761027507212695" lon="-25.34967840315938"><ele>530.0</ele><time>2026-04-30T16:16:58Z</time></trkpt></trkseg></trk></gpx>